KACV/ACV METAR and TAF weather

Enter ICAO airport designator
Station Type Date Time Source
KACV METAR 2021/01/17 18:29 UTC NOAA

KACV 171829Z AUTO 34004KT 5SM BR SCT004 11/09 A3028 RMK AO2 T01060089


Station Type Date Time Source
KACV Decoded METAR 2021/01/17 18:29 UTC NOAA

ARCATA/EUREKA ARCATA AIRPORT, CA, United States (KACV) 40-59N 124-06W 67M
Jan 17, 2021 - 01:29 PM EST / 2021.01.17 1829 UTC
Wind: from the NNW (340 degrees) at 5 MPH (4 KT):0
Visibility: 5 mile(s):0
Sky conditions: partly cloudy
Weather: mist
Temperature: 51.1 F (10.6 C)
Dew Point: 48.0 F (8.9 C)
Relative Humidity: 89%
Pressure (altimeter): 30.28 in. Hg (1025 hPa)
ob: KACV 171829Z AUTO 34004KT 5SM BR SCT004 11/09 A3028 RMK AO2 T01060089
cycle: 18

Station Type Date Time Source
KACV TAF 2021/01/17 18:33 UTC NOAA

TAF KACV 171731Z 1718/1818 32004KT P6SM SCT200
FM172100 33008KT P6SM BKN200
FM180200 VRB03KT P6SM SCT150 BKN200
FM180600 06005KT 6SM BR BKN150
FM180900 06003KT P6SM SCT250 WS015/07030KT
FM181600 09003KT P6SM FEW250

Example: see airport list